createdAt,value
2018-06-29T00:00:53.566Z,23.17
2018-06-29T00:03:23.781Z,23.11
2018-06-29T00:05:54.055Z,22.97
2018-06-29T00:08:24.228Z,22.96
2018-06-29T00:10:54.304Z,22.92
2018-06-29T00:13:24.549Z,22.90
2018-06-29T00:15:54.822Z,22.87
2018-06-29T00:18:24.771Z,22.73
2018-06-29T00:20:54.806Z,22.66
2018-06-29T00:23:25.895Z,22.59
2018-06-29T00:25:57.103Z,22.60
2018-06-29T00:28:27.770Z,22.61
2018-06-29T00:30:59.383Z,22.59
2018-06-29T00:33:30.065Z,22.58
2018-06-29T00:36:01.123Z,22.57
2018-06-29T00:40:30.928Z,22.57
2018-06-29T00:43:01.215Z,22.59
2018-06-29T00:45:31.408Z,22.61
2018-06-29T00:48:01.921Z,22.52
2018-06-29T00:50:32.075Z,22.27
2018-06-29T00:53:02.430Z,22.29
2018-06-29T00:55:32.449Z,22.31
2018-06-29T00:58:02.401Z,22.33
2018-06-29T01:00:32.784Z,22.35
2018-06-29T01:03:03.016Z,22.37
2018-06-29T01:05:33.482Z,22.40
2018-06-29T01:08:03.504Z,22.42
2018-06-29T01:10:33.688Z,22.42
2018-06-29T01:13:03.863Z,22.41
2018-06-29T01:15:34.168Z,22.33
2018-06-29T01:18:04.408Z,22.07
2018-06-29T01:20:34.444Z,22.00
2018-06-29T01:23:04.610Z,22.04
2018-06-29T01:25:34.923Z,22.08
2018-06-29T01:28:05.116Z,22.10
2018-06-29T01:30:35.300Z,22.10
2018-06-29T01:33:05.434Z,22.04
2018-06-29T01:35:35.301Z,22.05
2018-06-29T01:38:05.683Z,22.06
2018-06-29T01:40:35.709Z,22.07
2018-06-29T01:43:05.804Z,21.92
2018-06-29T01:45:35.685Z,21.88
2018-06-29T01:48:06.218Z,21.90
2018-06-29T01:50:37.443Z,21.85
2018-06-29T01:53:08.376Z,21.74
2018-06-29T01:55:39.661Z,21.68
2018-06-29T01:58:10.435Z,21.66
2018-06-29T02:00:41.659Z,21.62
2018-06-29T02:03:12.511Z,21.64
2018-06-29T02:05:42.871Z,21.71
2018-06-29T02:08:13.212Z,21.71
2018-06-29T02:10:43.195Z,21.70
2018-06-29T02:13:13.425Z,21.66
2018-06-29T02:15:43.609Z,21.66
2018-06-29T02:18:13.756Z,21.63
2018-06-29T02:20:44.023Z,21.65
2018-06-29T02:23:14.159Z,21.65
2018-06-29T02:25:44.536Z,21.66
2018-06-29T02:28:14.746Z,21.59
2018-06-29T02:30:44.856Z,21.55
2018-06-29T02:33:15.098Z,21.52
2018-06-29T02:35:45.303Z,21.49
2018-06-29T02:38:15.090Z,21.49
2018-06-29T02:40:45.131Z,21.47
2018-06-29T02:43:15.318Z,21.45
2018-06-29T02:45:45.268Z,21.41
2018-06-29T02:48:15.311Z,21.32
2018-06-29T02:50:45.289Z,21.26
2018-06-29T02:53:15.331Z,21.24
2018-06-29T02:55:45.362Z,21.22
2018-06-29T02:58:15.385Z,21.16
2018-06-29T03:00:45.568Z,21.22
2018-06-29T03:03:15.530Z,21.09
2018-06-29T03:05:45.534Z,21.01
2018-06-29T03:08:15.801Z,20.86
2018-06-29T03:10:45.978Z,20.82
2018-06-29T03:13:16.184Z,20.78
2018-06-29T03:15:46.294Z,20.78
2018-06-29T03:18:16.118Z,20.83
2018-06-29T03:20:45.940Z,20.87
2018-06-29T03:23:17.071Z,20.80
2018-06-29T03:25:48.051Z,20.78
2018-06-29T03:28:19.185Z,20.71
2018-06-29T03:30:50.068Z,20.72
2018-06-29T03:33:20.549Z,20.70
2018-06-29T03:35:50.639Z,20.71
2018-06-29T03:38:21.109Z,20.77
2018-06-29T03:40:50.567Z,20.77
2018-06-29T03:43:20.724Z,20.79
2018-06-29T03:45:50.918Z,20.75
2018-06-29T03:48:20.960Z,20.70
2018-06-29T03:50:51.034Z,20.69
2018-06-29T03:53:21.266Z,20.67
2018-06-29T03:55:51.189Z,20.72
2018-06-29T03:58:21.288Z,20.77
2018-06-29T04:00:51.475Z,20.96
2018-06-29T04:03:21.807Z,21.20
2018-06-29T04:05:53.175Z,21.45
2018-06-29T04:08:23.300Z,21.72
2018-06-29T04:10:53.670Z,21.86
2018-06-29T04:13:23.778Z,22.26
2018-06-29T04:15:53.929Z,22.32
2018-06-29T04:18:24.060Z,22.34
2018-06-29T04:20:54.236Z,22.31
2018-06-29T04:23:24.779Z,22.28
2018-06-29T04:25:55.725Z,22.50
2018-06-29T04:28:26.120Z,22.56
2018-06-29T04:30:56.253Z,22.48
2018-06-29T04:33:26.541Z,22.45
2018-06-29T04:35:56.649Z,22.12
2018-06-29T04:38:26.858Z,21.93
2018-06-29T04:40:57.070Z,21.72
2018-06-29T04:43:27.070Z,21.75
2018-06-29T04:45:57.050Z,21.70
2018-06-29T04:48:27.135Z,21.58
2018-06-29T04:50:56.914Z,21.48
2018-06-29T04:53:27.581Z,21.44
2018-06-29T04:55:58.097Z,21.37
2018-06-29T04:58:28.274Z,21.22
2018-06-29T05:00:58.678Z,21.16
2018-06-29T05:03:28.826Z,21.17
2018-06-29T05:05:58.878Z,21.09
2018-06-29T05:08:29.035Z,20.96
2018-06-29T05:10:59.200Z,20.95
2018-06-29T05:13:29.519Z,20.96
2018-06-29T05:15:59.741Z,21.02
2018-06-29T05:18:29.855Z,21.02
2018-06-29T05:21:00.044Z,21.03
2018-06-29T05:23:29.979Z,21.08
2018-06-29T05:26:00.515Z,21.08
2018-06-29T05:28:30.705Z,21.11
2018-06-29T05:31:01.761Z,21.07
2018-06-29T05:33:32.089Z,21.04
2018-06-29T05:36:02.330Z,21.13
2018-06-29T05:38:32.504Z,21.19
2018-06-29T05:41:03.035Z,21.20
2018-06-29T05:43:34.166Z,21.17
2018-06-29T05:46:04.249Z,21.20
2018-06-29T05:48:34.346Z,21.32
2018-06-29T05:51:04.490Z,21.46
2018-06-29T05:53:34.609Z,21.40
2018-06-29T05:56:04.855Z,21.47
2018-06-29T05:58:34.987Z,21.41
2018-06-29T06:01:08.296Z,21.47
2018-06-29T06:03:38.698Z,21.53
2018-06-29T06:06:09.445Z,21.57
2018-06-29T06:08:39.620Z,21.60
2018-06-29T06:11:09.881Z,21.66
2018-06-29T06:13:40.049Z,21.69
2018-06-29T06:16:10.046Z,21.58
2018-06-29T06:18:40.111Z,21.54
2018-06-29T06:21:10.585Z,21.62
2018-06-29T06:23:40.856Z,21.68
2018-06-29T06:26:11.250Z,21.76
2018-06-29T06:28:41.527Z,21.74
2018-06-29T06:40:31.401Z,21.84
2018-06-29T06:43:18.522Z,21.96
2018-06-29T06:45:49.647Z,22.03
2018-06-29T06:48:19.293Z,22.18
2018-06-29T06:50:49.572Z,22.34
2018-06-29T06:53:19.829Z,22.35
2018-06-29T06:55:50.397Z,22.36
2018-06-29T06:58:20.947Z,22.42
2018-06-29T07:00:51.621Z,22.48
2018-06-29T07:03:21.649Z,22.47
2018-06-29T07:05:51.676Z,22.60
2018-06-29T07:08:22.127Z,22.68
2018-06-29T07:10:52.236Z,22.77
2018-06-29T07:13:22.365Z,22.90
2018-06-29T07:15:52.633Z,22.98
2018-06-29T07:18:22.843Z,23.12
2018-06-29T07:20:53.021Z,23.21
2018-06-29T07:23:23.117Z,23.28
2018-06-29T07:25:53.445Z,23.32
2018-06-29T07:28:23.753Z,23.39
2018-06-29T07:30:53.906Z,23.49
2018-06-29T07:33:24.040Z,23.49
2018-06-29T07:35:54.059Z,23.51
2018-06-29T07:38:24.215Z,23.51
2018-06-29T07:40:54.551Z,23.59
2018-06-29T07:43:24.640Z,23.68
2018-06-29T07:45:54.978Z,23.79
2018-06-29T07:48:25.056Z,23.89
2018-06-29T07:50:54.925Z,23.97
2018-06-29T07:53:25.107Z,24.07
2018-06-29T07:55:55.630Z,24.12
2018-06-29T07:58:25.981Z,24.22
2018-06-29T08:01:02.472Z,24.30
2018-06-29T08:03:35.362Z,24.35
2018-06-29T08:06:05.486Z,24.27
2018-06-29T08:08:35.459Z,24.36
2018-06-29T08:11:05.585Z,24.42
2018-06-29T08:13:35.736Z,24.52
2018-06-29T08:16:06.106Z,24.59
2018-06-29T08:18:36.256Z,24.70
2018-06-29T08:21:06.526Z,24.80
2018-06-29T08:23:36.971Z,24.80
2018-06-29T08:26:23.365Z,24.81
2018-06-29T08:28:53.604Z,24.87
2018-06-29T08:31:23.748Z,24.92
2018-06-29T08:33:53.953Z,24.96
2018-06-29T08:36:24.245Z,24.96
2018-06-29T08:38:54.436Z,24.96
2018-06-29T08:41:24.547Z,25.01
2018-06-29T08:43:54.635Z,25.02
2018-06-29T08:46:24.805Z,25.08
2018-06-29T08:48:55.125Z,25.13
2018-06-29T08:51:25.331Z,25.15
2018-06-29T08:53:55.616Z,25.25
2018-06-29T08:56:26.244Z,25.27
2018-06-29T08:58:57.009Z,25.31
2018-06-29T09:01:27.306Z,25.30
2018-06-29T09:03:57.356Z,25.38
2018-06-29T09:06:27.496Z,25.43
2018-06-29T09:08:57.832Z,25.49
2018-06-29T09:11:28.090Z,25.52
2018-06-29T09:13:58.193Z,25.61
2018-06-29T09:16:28.385Z,25.63
2018-06-29T09:18:58.581Z,25.69
2018-06-29T09:21:29.460Z,25.77
2018-06-29T09:24:00.385Z,25.79
2018-06-29T09:26:31.172Z,25.80
2018-06-29T09:29:02.411Z,25.80
2018-06-29T09:31:33.315Z,25.83
2018-06-29T09:40:31.213Z,25.92
2018-06-29T09:43:01.321Z,26.11
2018-06-29T09:45:31.592Z,26.18
2018-06-29T09:48:02.376Z,26.31
2018-06-29T09:50:32.507Z,26.34
2018-06-29T09:53:02.678Z,26.38
2018-06-29T09:55:32.874Z,26.44
2018-06-29T09:58:03.172Z,26.54
2018-06-29T10:00:33.696Z,26.54
2018-06-29T10:03:04.246Z,26.55
2018-06-29T10:05:34.791Z,26.46
2018-06-29T10:08:04.971Z,26.46
2018-06-29T10:10:35.140Z,26.56
2018-06-29T10:13:05.117Z,26.71
2018-06-29T10:15:35.443Z,26.71
2018-06-29T10:18:05.546Z,26.57
2018-06-29T10:20:35.742Z,26.60
2018-06-29T10:23:06.338Z,26.65
2018-06-29T10:25:36.713Z,26.70
2018-06-29T10:28:07.390Z,26.75
2018-06-29T10:30:37.559Z,26.82
2018-06-29T10:33:07.683Z,26.77
2018-06-29T10:35:38.062Z,26.86
2018-06-29T10:38:08.341Z,26.96
2018-06-29T10:40:38.523Z,27.07
2018-06-29T10:43:08.594Z,27.07
2018-06-29T10:45:38.721Z,27.08
2018-06-29T10:48:08.852Z,27.10
2018-06-29T10:50:39.171Z,27.18
2018-06-29T10:53:10.408Z,27.26
2018-06-29T11:00:31.161Z,27.32
2018-06-29T11:03:01.349Z,27.37
2018-06-29T11:05:31.620Z,27.42
2018-06-29T11:08:01.778Z,27.47
2018-06-29T11:10:32.041Z,27.52
2018-06-29T11:13:02.302Z,27.58
2018-06-29T11:15:32.618Z,27.67
2018-06-29T11:18:02.789Z,27.76
2018-06-29T11:20:33.072Z,27.80
2018-06-29T11:23:03.223Z,27.85
2018-06-29T11:25:33.371Z,27.89
2018-06-29T11:28:03.564Z,27.91
2018-06-29T11:30:33.649Z,28.03
2018-06-29T11:33:03.669Z,28.05
2018-06-29T11:35:34.102Z,28.13
2018-06-29T11:38:04.397Z,28.23
2018-06-29T11:40:34.557Z,28.23
2018-06-29T11:43:04.639Z,28.27
2018-06-29T11:45:34.688Z,28.34
2018-06-29T11:48:05.242Z,28.42
2018-06-29T11:50:35.988Z,28.47
2018-06-29T11:53:07.230Z,28.54
2018-06-29T11:55:38.378Z,28.61
2018-06-29T11:58:09.395Z,28.69
2018-06-29T12:00:40.879Z,28.78
2018-06-29T12:03:11.868Z,28.87
2018-06-29T12:05:42.114Z,29.03
2018-06-29T12:08:12.284Z,29.11
2018-06-29T12:10:41.777Z,29.12
2018-06-29T12:13:11.987Z,29.21
2018-06-29T12:15:42.178Z,29.39
2018-06-29T12:18:12.421Z,29.47
2018-06-29T12:20:42.581Z,29.50
2018-06-29T12:23:12.634Z,29.53
2018-06-29T12:25:43.049Z,29.59
2018-06-29T12:28:13.053Z,29.60
2018-06-29T12:30:43.357Z,29.68
2018-06-29T12:33:13.361Z,29.73
2018-06-29T12:35:43.590Z,29.79
2018-06-29T12:38:13.772Z,29.86
2018-06-29T12:40:44.163Z,29.90
2018-06-29T12:43:14.694Z,29.94
2018-06-29T12:45:44.720Z,30.05
2018-06-29T12:48:14.962Z,30.21
2018-06-29T12:50:45.253Z,30.16
2018-06-29T12:53:15.292Z,30.15
2018-06-29T12:55:45.510Z,30.23
2018-06-29T12:58:15.549Z,30.37
2018-06-29T13:00:45.393Z,30.42
2018-06-29T13:03:15.729Z,30.51
2018-06-29T13:05:46.044Z,30.64
2018-06-29T13:08:16.317Z,30.78
2018-06-29T13:10:46.497Z,30.83
2018-06-29T13:13:16.573Z,30.89
2018-06-29T13:15:47.148Z,30.82
2018-06-29T13:18:18.293Z,30.85
2018-06-29T13:30:32.404Z,30.95
2018-06-29T13:33:02.758Z,31.09
2018-06-29T13:35:33.692Z,31.11
2018-06-29T13:38:03.884Z,31.25
2018-06-29T13:40:34.072Z,31.37
2018-06-29T13:43:04.644Z,31.48
2018-06-29T13:45:35.318Z,31.56
2018-06-29T13:48:05.655Z,31.53
2018-06-29T13:50:36.277Z,31.65
2018-06-29T13:53:06.904Z,31.68
2018-06-29T13:55:37.203Z,31.70
2018-06-29T13:58:07.421Z,31.64
2018-06-29T14:00:37.618Z,31.62
2018-06-29T14:03:07.941Z,31.67
2018-06-29T14:05:38.284Z,31.72
2018-06-29T14:08:08.192Z,31.74
2018-06-29T14:10:38.379Z,31.89
2018-06-29T14:13:08.596Z,32.06
2018-06-29T14:15:38.789Z,32.22
2018-06-29T14:18:08.852Z,32.25
2018-06-29T14:20:39.956Z,32.36
2018-06-29T14:23:11.105Z,32.42
2018-06-29T14:25:42.346Z,32.50
2018-06-29T14:28:13.416Z,32.51
2018-06-29T14:30:44.455Z,32.57
2018-06-29T14:33:15.697Z,32.61
2018-06-29T14:35:46.703Z,32.40
2018-06-29T14:38:17.647Z,32.48
2018-06-29T14:40:49.208Z,32.58
2018-06-29T14:43:19.874Z,32.55
2018-06-29T14:45:50.561Z,32.64
2018-06-29T14:48:20.386Z,32.71
2018-06-29T14:50:50.994Z,32.77
2018-06-29T14:53:21.314Z,32.88
2018-06-29T14:55:51.779Z,32.94
2018-06-29T14:58:22.657Z,32.89
2018-06-29T15:00:52.912Z,32.94
2018-06-29T15:03:23.667Z,32.89
2018-06-29T15:05:54.331Z,32.91
2018-06-29T15:08:24.376Z,33.27
2018-06-29T15:10:54.641Z,33.47
2018-06-29T15:13:25.033Z,33.52
2018-06-29T15:15:55.051Z,33.46
2018-06-29T15:18:25.423Z,33.34
2018-06-29T15:20:55.598Z,33.23
2018-06-29T15:23:25.785Z,33.05
2018-06-29T15:25:55.998Z,32.76
2018-06-29T15:28:26.345Z,32.71
2018-06-29T15:30:57.048Z,32.73
2018-06-29T15:33:27.542Z,32.81
2018-06-29T15:35:57.792Z,32.58
2018-06-29T15:38:27.838Z,32.50
2018-06-29T15:40:58.019Z,32.57
2018-06-29T15:43:28.124Z,32.57
2018-06-29T15:45:58.327Z,32.49
2018-06-29T15:48:28.541Z,32.56
2018-06-29T15:50:58.898Z,32.63
2018-06-29T15:53:30.587Z,32.61
2018-06-29T15:56:01.850Z,32.70
2018-06-29T15:58:32.082Z,32.88
2018-06-29T16:01:02.285Z,32.91
2018-06-29T16:03:32.692Z,33.02
2018-06-29T16:06:03.559Z,32.97
2018-06-29T16:08:34.894Z,32.89
2018-06-29T16:11:06.054Z,32.82
2018-06-29T16:13:37.168Z,32.88
2018-06-29T16:16:07.639Z,33.10
2018-06-29T16:18:38.704Z,33.64
2018-06-29T16:21:09.648Z,34.32
2018-06-29T16:23:40.102Z,34.98
2018-06-29T16:26:10.655Z,35.14
2018-06-29T16:28:41.548Z,35.54
2018-06-29T16:31:11.688Z,35.84
2018-06-29T16:33:41.960Z,36.54
2018-06-29T16:36:12.022Z,37.12
2018-06-29T16:38:42.270Z,37.70
2018-06-29T16:41:12.512Z,38.10
2018-06-29T16:43:42.356Z,38.56
2018-06-29T16:46:12.660Z,38.52
2018-06-29T16:48:42.960Z,38.44
2018-06-29T16:51:13.213Z,38.54
2018-06-29T16:53:43.333Z,38.96
2018-06-29T16:56:13.545Z,39.63
2018-06-29T16:58:43.837Z,39.58
2018-06-29T17:01:14.065Z,40.00
2018-06-29T17:03:44.572Z,40.13
2018-06-29T17:06:14.840Z,39.95
2018-06-29T17:08:45.391Z,40.00
2018-06-29T17:11:15.633Z,39.98
2018-06-29T17:13:46.423Z,39.98
2018-06-29T17:16:16.957Z,40.01
2018-06-29T17:18:47.411Z,39.86
2018-06-29T17:21:17.633Z,39.71
2018-06-29T17:23:47.804Z,39.79
2018-06-29T17:26:18.067Z,39.70
2018-06-29T17:28:48.351Z,40.18
2018-06-29T17:31:18.428Z,40.35
2018-06-29T17:33:49.692Z,40.23
2018-06-29T17:36:19.668Z,39.81
2018-06-29T17:38:49.846Z,39.50
2018-06-29T17:41:20.183Z,39.25
2018-06-29T17:43:50.423Z,39.31
2018-06-29T17:46:20.358Z,39.55
2018-06-29T17:48:50.502Z,39.42
2018-06-29T18:00:30.891Z,39.00
2018-06-29T18:03:01.194Z,37.93
2018-06-29T18:05:32.165Z,37.72
2018-06-29T18:08:02.768Z,37.59
2018-06-29T18:10:32.879Z,37.54
2018-06-29T18:13:03.055Z,37.36
2018-06-29T18:20:31.325Z,37.38
2018-06-29T18:23:01.741Z,37.10
2018-06-29T18:25:31.952Z,36.84
2018-06-29T18:28:02.156Z,36.46
2018-06-29T18:30:32.310Z,36.26
2018-06-29T18:33:02.604Z,36.06
2018-06-29T18:35:33.070Z,35.88
2018-06-29T18:38:03.799Z,35.76
2018-06-29T18:40:34.377Z,35.11
2018-06-29T18:43:05.274Z,33.93
2018-06-29T18:45:36.226Z,32.84
2018-06-29T18:48:06.813Z,31.99
2018-06-29T18:50:37.499Z,31.37
2018-06-29T18:53:08.034Z,30.80
2018-06-29T18:55:38.414Z,30.33
2018-06-29T18:58:08.784Z,29.90
2018-06-29T19:00:38.981Z,29.60
2018-06-29T19:03:09.468Z,29.32
2018-06-29T19:05:39.873Z,29.17
2018-06-29T19:08:10.193Z,29.04
2018-06-29T19:10:40.529Z,29.00
2018-06-29T19:13:10.727Z,28.79
2018-06-29T19:15:41.040Z,28.57
2018-06-29T19:18:11.767Z,28.43
2018-06-29T19:20:42.193Z,28.32
2018-06-29T19:23:12.313Z,28.21
2018-06-29T19:25:42.533Z,28.13
2018-06-29T19:28:12.673Z,28.01
2018-06-29T19:30:42.779Z,28.05
2018-06-29T19:33:13.877Z,27.95
2018-06-29T19:35:44.548Z,27.87
2018-06-29T19:38:15.192Z,27.69
2018-06-29T19:40:45.799Z,27.62
2018-06-29T19:43:16.161Z,27.60
2018-06-29T19:45:47.047Z,27.56
2018-06-29T19:48:17.327Z,27.45
2018-06-29T19:50:48.233Z,27.36
2018-06-29T19:53:18.687Z,27.25
2018-06-29T19:55:49.071Z,27.22
2018-06-29T19:58:19.408Z,27.22
2018-06-29T20:00:50.129Z,27.16
2018-06-29T20:03:20.662Z,27.19
2018-06-29T20:05:51.114Z,27.12
2018-06-29T20:08:21.414Z,26.96
2018-06-29T20:10:51.831Z,26.97
2018-06-29T20:13:22.040Z,26.96
2018-06-29T20:15:52.264Z,26.95
2018-06-29T20:18:22.549Z,26.93
2018-06-29T20:20:52.765Z,26.94
2018-06-29T20:23:22.838Z,26.92
2018-06-29T20:25:52.983Z,26.93
2018-06-29T20:28:23.201Z,26.94
2018-06-29T20:30:54.045Z,26.84
2018-06-29T20:33:24.558Z,26.73
2018-06-29T20:35:55.055Z,26.56
2018-06-29T20:38:25.469Z,26.44
2018-06-29T20:40:55.895Z,26.47
2018-06-29T20:43:26.270Z,26.48
2018-06-29T20:45:56.513Z,26.40
2018-06-29T20:48:26.617Z,26.36
2018-06-29T20:50:56.881Z,26.33
2018-06-29T20:53:27.172Z,26.31
2018-06-29T20:55:57.383Z,26.30
2018-06-29T20:58:27.763Z,26.17
2018-06-29T21:00:57.919Z,26.17
2018-06-29T21:03:28.284Z,26.08
2018-06-29T21:05:58.727Z,26.03
2018-06-29T21:08:28.887Z,26.01
2018-06-29T21:10:59.356Z,26.01
2018-06-29T21:13:29.600Z,26.01
2018-06-29T21:15:59.840Z,26.04
2018-06-29T21:18:30.239Z,26.08
2018-06-29T21:21:00.366Z,26.03
2018-06-29T21:23:30.959Z,25.96
2018-06-29T21:26:01.464Z,25.94
2018-06-29T21:28:31.812Z,25.79
2018-06-29T21:31:01.918Z,25.79
2018-06-29T21:33:32.246Z,25.60
2018-06-29T21:36:02.803Z,25.53
2018-06-29T21:38:33.354Z,25.50
2018-06-29T21:41:03.710Z,25.45
2018-06-29T21:43:33.903Z,25.48
2018-06-29T21:46:04.185Z,25.33
2018-06-29T21:48:34.317Z,25.35
2018-06-29T21:51:04.400Z,25.37
2018-06-29T21:53:34.783Z,25.28
2018-06-29T21:56:05.250Z,25.19
2018-06-29T21:58:35.603Z,25.14
2018-06-29T22:01:05.864Z,25.13
2018-06-29T22:03:36.303Z,25.11
2018-06-29T22:06:06.750Z,24.91
2018-06-29T22:08:37.251Z,24.88
2018-06-29T22:11:07.913Z,24.91
2018-06-29T22:13:38.186Z,24.92
2018-06-29T22:16:08.294Z,24.85
2018-06-29T22:18:38.601Z,24.86
2018-06-29T22:21:08.816Z,24.81
2018-06-29T22:23:39.534Z,24.79
2018-06-29T22:26:09.930Z,24.78
2018-06-29T22:28:39.695Z,24.72
2018-06-29T22:31:10.069Z,24.66
2018-06-29T22:33:40.583Z,24.67
2018-06-29T22:36:10.834Z,24.71
2018-06-29T22:38:41.863Z,24.71
2018-06-29T22:41:12.659Z,24.75
2018-06-29T22:43:42.884Z,24.70
2018-06-29T22:46:13.418Z,24.77
2018-06-29T22:48:44.017Z,24.78
2018-06-29T22:51:13.988Z,24.78
2018-06-29T22:53:44.124Z,24.73
2018-06-29T22:56:14.376Z,24.75
2018-06-29T22:58:44.493Z,24.75
2018-06-29T23:01:14.865Z,24.80
2018-06-29T23:03:50.059Z,24.81
2018-06-29T23:06:20.203Z,24.80
2018-06-29T23:08:50.380Z,24.75
2018-06-29T23:11:20.586Z,24.72
2018-06-29T23:13:50.652Z,24.64
2018-06-29T23:16:20.781Z,24.57
2018-06-29T23:18:50.875Z,24.44
2018-06-29T23:21:20.891Z,24.39
2018-06-29T23:23:51.309Z,24.28
2018-06-29T23:26:21.501Z,24.20
2018-06-29T23:28:51.839Z,24.27
2018-06-29T23:31:21.977Z,24.24
2018-06-29T23:33:52.126Z,24.26
2018-06-29T23:36:22.306Z,24.19
2018-06-29T23:38:52.588Z,24.14
2018-06-29T23:41:22.720Z,24.07
2018-06-29T23:43:52.915Z,24.04
2018-06-29T23:46:22.729Z,23.98
2018-06-29T23:48:52.729Z,23.94
2018-06-29T23:51:22.626Z,23.96
2018-06-29T23:53:52.595Z,24.02
2018-06-29T23:56:22.449Z,24.04
2018-06-29T23:58:52.722Z,24.07
